Latest Weather Observations for Southern Cross Airport

IDW60801

Issued at 6:33 am WST Friday 31 March 2017 (issued every 30 minutes, with the page automatically refreshed every 10 minutes)

About weather observations | Map of weather stations | Latest weather observations for WA | Other Formats
Station Details ID: 012320 Name: SOUTHERN CROSS AIRFIELD Lat: -31.24 Lon: 119.36 Height: 347.4 m
Data from the previous 72 hours. | See also: Recent months at Southern Cross Airport
Date/Time
WST
Temp
°C
App
Temp
°C
Dew
Point
°C
Rel
Hum
%
Delta-T
°C
Wind Press
QNH
hPa
Press
MSL
hPa
Rain since
9am
mm
Dir  Spd
km/h
Gust
km/h
Spd
kts
Gust
kts
31/06:30am 9.0 6.0 1.7 60 3.1 SE 7 9 4 5 1023.8 1022.2 0.0
31/06:00am 9.1 6.0 1.3 58 3.3 SE 7 9 4 5 1023.4 1021.9 0.0
31/05:30am 9.2 6.1 1.1 57 3.4 SE 7 11 4 6 1023.3 1021.8 0.0
31/05:00am 9.4 6.3 1.1 56 3.5 SE 7 9 4 5 1022.9 1021.3 0.0
31/04:30am 9.9 6.8 1.3 55 3.6 SE 7 9 4 5 1022.7 1021.1 0.0
31/04:00am 10.8 7.4 1.6 53 3.9 ESE 9 11 5 6 1022.6 1021.0 0.0
31/03:30am 10.2 8.4 1.1 53 3.8 CALM 0 7 0 4 1022.4 1020.8 0.0
31/03:00am 10.1 8.3 1.2 54 3.7 CALM 0 0 0 0 1022.3 1020.7 0.0
31/02:30am 11.1 9.4 1.6 52 4.1 CALM 0 0 0 0 1022.5 1020.9 0.0
31/02:00am 10.6 8.8 1.2 52 4.0 CALM 0 0 0 0 1022.5 1020.9 0.0
31/01:30am 10.3 8.1 0.9 52 4.0 SSW 2 6 1 3 1022.5 1020.9 0.0
31/01:00am 12.8 9.8 1.8 47 4.8 NE 7 11 4 6 1022.5 1020.9 0.0
31/12:30am 9.9 7.6 0.3 51 4.0 ESE 2 6 1 3 1022.5 1020.9 0.0
31/12:00am 14.5 11.4 1.4 41 5.8 ESE 7 9 4 5 1022.6 1021.0 0.0
 
Date/Time
WST
Temp
°C
App
Temp
°C
Dew
Point
°C
Rel
Hum
%
Delta-T
°C
Wind Press
QNH
hPa
Press
MSL
hPa
Rain since
9am
mm
Dir  Spd
km/h
Gust
km/h
Spd
kts
Gust
kts
30/11:30pm 14.1 11.1 1.7 43 5.5 ESE 7 9 4 5 1022.6 1021.0 0.0
30/11:00pm 11.9 8.9 1.0 47 4.6 S 6 9 3 5 1022.7 1021.1 0.0
30/10:30pm 13.1 10.5 0.8 43 5.3 S 4 7 2 4 1022.8 1021.2 0.0
30/10:00pm 13.7 11.4 0.7 41 5.6 E 2 7 1 4 1022.9 1021.3 0.0
30/09:30pm 14.5 11.5 0.7 39 6.0 S 6 7 3 4 1022.9 1021.3 0.0
30/09:00pm 17.7 14.1 0.8 32 7.5 E 9 13 5 7 1022.7 1021.1 0.0
30/08:30pm 18.3 14.4 1.3 32 7.7 ESE 11 15 6 8 1022.7 1021.1 0.0
30/08:00pm 18.9 14.7 1.4 31 8.0 ESE 13 15 7 8 1022.5 1020.9 0.0
30/07:30pm 19.1 15.2 1.1 30 8.2 ESE 11 15 6 8 1022.2 1020.6 0.0
30/07:00pm 20.0 16.5 1.0 28 8.7 ESE 9 11 5 6 1022.0 1020.4 0.0
30/06:30pm 21.3 18.1 1.0 26 9.4 E 7 9 4 5 1021.8 1020.2 0.0
30/06:00pm 23.0 19.5 1.4 24 10.2 E 9 11 5 6 1021.6 1020.0 0.0
30/05:30pm 24.6 20.8 1.5 22 11.1 ESE 11 15 6 8 1021.4 1019.8 0.0
30/05:00pm 25.0 21.6 1.8 22 11.2 NE 9 13 5 7 1021.4 1019.8 0.0
30/04:30pm 24.9 21.1 1.7 22 11.2 ESE 11 17 6 9 1021.2 1019.6 0.0
30/04:00pm 25.4 21.7 2.2 22 11.3 NE 11 20 6 11 1021.1 1019.5 0.0
30/03:30pm 25.3 21.9 2.1 22 11.3 ENE 9 13 5 7 1021.3 1019.7 0.0
30/03:00pm 24.8 21.1 2.3 23 10.9 NE 11 19 6 10 1021.4 1019.8 0.0
30/02:30pm 23.9 20.2 2.1 24 10.5 NNE 11 20 6 11 1021.6 1020.0 0.0
30/02:00pm 24.1 19.4 2.9 25 10.4 NNE 17 26 9 14 1021.7 1020.1 0.0
30/01:30pm 24.0 19.3 3.3 26 10.2 NNE 17 26 9 14 1022.1 1020.5 0.0
30/01:00pm 23.1 18.8 3.1 27 9.7 NE 15 24 8 13 1022.8 1021.2 0.0
30/12:30pm 22.6 18.3 3.2 28 9.5 NE 15 26 8 14 1023.4 1021.9 0.0
30/12:00pm 21.7 17.5 3.9 31 8.7 NE 15 28 8 15 1023.8 1022.2 0.0
30/11:30am 20.1 14.9 3.3 33 8.1 NE 20 28 11 15 1024.6 1023.0 0.0
30/11:00am 19.9 14.9 3.6 34 7.8 NE 19 32 10 17 1025.1 1023.5 0.0
30/10:30am 18.3 12.0 3.8 38 6.9 NE 26 33 14 18 1025.5 1023.9 0.0
30/10:00am 18.1 12.0 4.7 41 6.5 NE 26 35 14 19 1025.9 1024.4 0.0
30/09:30am 16.7 11.3 4.7 45 5.8 NE 22 30 12 16 1026.1 1024.6 0.0
30/09:00am 16.0 10.3 5.0 48 5.3 NE 24 33 13 18 1026.3 1024.8 0.0
30/08:30am 15.0 8.2 5.2 52 4.7 NE 30 39 16 21 1026.3 1024.8 0.0
30/08:00am 13.4 6.2 4.8 56 4.0 NE 32 41 17 22 1026.1 1024.6 0.0
30/07:30am 12.5 6.3 4.5 58 3.7 ENE 26 39 14 21 1026.2 1024.7 0.0
30/07:00am 11.1 6.0 4.1 62 3.2 ENE 20 35 11 19 1026.0 1024.5 0.0
30/06:30am 10.2 6.0 3.9 65 2.8 ENE 15 24 8 13 1026.1 1024.6 0.0
30/06:00am 9.9 5.7 3.6 65 2.8 E 15 20 8 11 1025.8 1024.3 0.0
30/05:30am 10.0 5.7 3.3 63 3.0 E 15 20 8 11 1025.8 1024.3 0.0
30/05:00am 10.3 5.6 3.1 61 3.2 E 17 24 9 13 1025.6 1024.0 0.0
30/04:30am 10.6 6.2 2.7 58 3.5 E 15 22 8 12 1025.4 1023.8 0.0
30/04:00am 10.8 6.0 2.6 57 3.6 E 17 24 9 13 1025.4 1023.8 0.0
30/03:30am 11.1 6.3 2.7 56 3.7 ESE 17 24 9 13 1025.2 1023.6 0.0
30/03:00am 11.1 6.3 2.7 56 3.7 ESE 17 22 9 12 1025.2 1023.6 0.0
30/02:30am 11.2 6.8 2.8 56 3.7 ESE 15 20 8 11 1025.3 1023.7 0.0
30/02:00am 11.8 7.0 2.8 54 4.0 ESE 17 24 9 13 1025.2 1023.6 0.0
30/01:30am 12.3 7.1 2.5 51 4.4 ESE 19 24 10 13 1025.2 1023.6 0.0
30/01:00am 12.5 7.6 2.1 49 4.6 ESE 17 22 9 12 1025.2 1023.6 0.0
30/12:30am 13.1 8.2 2.1 47 4.9 ESE 17 22 9 12 1025.1 1023.5 0.0
30/12:00am 13.9 8.7 2.2 45 5.2 ESE 19 28 10 15 1025.1 1023.5 0.0
 
Date/Time
WST
Temp
°C
App
Temp
°C
Dew
Point
°C
Rel
Hum
%
Delta-T
°C
Wind Press
QNH
hPa
Press
MSL
hPa
Rain since
9am
mm
Dir  Spd
km/h
Gust
km/h
Spd
kts
Gust
kts
29/11:30pm 14.2 8.9 2.1 44 5.4 ESE 19 26 10 14 1025.1 1023.5 0.0
29/11:00pm 15.2 9.9 2.1 41 5.9 E 19 26 10 14 1024.9 1023.3 0.0
29/10:30pm 15.3 10.0 1.8 40 6.1 ESE 19 24 10 13 1025.0 1023.4 0.0
29/10:00pm 15.5 10.5 1.3 38 6.3 E 17 20 9 11 1025.0 1023.4 0.0
29/09:30pm 16.1 11.4 1.0 36 6.7 E 15 20 8 11 1025.0 1023.4 0.0
29/09:00pm 16.4 11.8 1.3 36 6.7 E 15 20 8 11 1024.9 1023.3 0.0
29/08:30pm 16.7 12.0 1.2 35 7.0 E 15 24 8 13 1024.8 1023.2 0.0
29/08:00pm 17.4 12.7 1.0 33 7.3 E 15 19 8 10 1024.5 1022.9 0.0
29/07:30pm 18.2 13.6 1.3 32 7.7 E 15 20 8 11 1024.1 1022.5 0.0
29/07:00pm 19.1 14.5 1.6 31 8.0 E 15 19 8 10 1023.8 1022.2 0.0
29/06:30pm 20.1 15.1 1.5 29 8.6 E 17 24 9 13 1023.3 1021.8 0.0
29/06:00pm 21.2 15.6 1.5 27 9.2 E 20 28 11 15 1023.1 1021.5 0.0
29/05:30pm 22.0 16.0 1.1 25 9.8 E 22 32 12 17 1022.8 1021.2 0.0
29/05:00pm 22.6 16.1 0.4 23 10.2 E 24 32 13 17 1022.7 1021.1 0.0
29/04:30pm 23.1 16.9 -0.4 21 10.8 E 22 32 12 17 1022.5 1020.9 0.0
29/04:00pm 23.6 17.1 0.0 21 10.9 ENE 24 33 13 18 1022.5 1020.9 0.0
29/03:30pm 23.4 17.1 -0.8 20 11.0 E 22 35 12 19 1022.4 1020.8 0.0
29/03:00pm 23.0 16.5 0.2 22 10.5 E 24 33 13 18 1022.4 1020.8 0.0
29/02:30pm 23.2 17.2 0.9 23 10.5 ENE 22 35 12 19 1022.6 1021.0 0.0
29/02:00pm 23.2 16.9 1.5 24 10.3 ESE 24 37 13 20 1022.8 1021.2 0.0
29/01:30pm 22.2 15.6 2.3 27 9.5 E 26 39 14 21 1023.1 1021.5 0.0
29/01:00pm 21.9 15.9 3.6 30 8.9 ESE 24 43 13 23 1023.2 1021.7 0.0
29/12:30pm 21.4 16.0 4.5 33 8.4 E 22 33 12 18 1023.6 1022.1 0.0
29/12:00pm 20.6 14.7 3.8 33 8.1 E 24 33 13 18 1024.0 1022.4 0.0
29/11:30am 19.4 13.4 3.6 35 7.6 ESE 24 33 13 18 1024.6 1023.0 0.0
29/11:00am 18.7 12.2 4.5 39 6.9 ESE 28 37 15 20 1024.9 1023.3 0.0
29/10:30am 17.9 12.3 5.2 43 6.2 ESE 24 33 13 18 1025.1 1023.5 0.0
29/10:00am 17.2 11.2 5.2 45 5.8 ESE 26 35 14 19 1025.1 1023.5 0.0
29/09:30am 16.5 10.3 4.5 45 5.8 ESE 26 39 14 21 1025.0 1023.4 0.0
29/09:00am 16.2 9.9 5.5 49 5.2 ESE 28 37 15 20 1025.0 1023.4 0.0
29/08:30am 14.9 8.4 6.5 57 4.1 SE 30 39 16 21 1024.9 1023.3 0.0
29/08:00am 14.2 8.6 7.0 62 3.6 ESE 26 39 14 21 1024.6 1023.0 0.0
29/07:30am 13.8 9.2 8.2 69 2.8 ESE 22 37 12 20 1024.3 1022.7 0.0
29/07:00am 14.4 9.4 7.9 65 3.3 ESE 24 33 13 18 1023.9 1022.3 0.0
29/06:30am 14.1 8.2 7.4 64 3.4 SE 28 35 15 19 1023.2 1021.7 0.0
29/06:00am 14.2 8.0 7.7 65 3.3 SE 30 39 16 21 1023.0 1021.4 0.0
29/05:30am 14.5 8.5 8.5 67 3.1 SE 30 41 16 22 1022.7 1021.1 0.0
29/05:00am 14.7 9.2 9.3 70 2.8 SE 28 39 15 21 1022.4 1020.8 0.0
29/04:30am 15.3 10.3 9.4 68 3.1 SSE 26 32 14 17 1022.0 1020.4 0.0
29/04:00am 15.4 9.8 8.9 65 3.4 SE 28 35 15 19 1021.5 1019.9 0.0
29/03:30am 15.8 11.3 10.1 69 3.0 SE 24 32 13 17 1021.4 1019.8 0.0
29/03:00am 15.8 11.3 9.9 68 3.1 SE 24 30 13 16 1021.2 1019.6 0.0
29/02:30am 15.7 11.2 10.2 70 2.9 SE 24 32 13 17 1020.9 1019.3 0.0
29/02:00am 15.5 10.8 10.5 72 2.7 SE 26 37 14 20 1020.5 1018.9 0.0
29/01:30am 15.2 9.3 10.4 73 2.6 SE 32 39 17 21 1020.1 1018.5 0.0
29/01:00am 15.6 11.1 9.9 69 3.0 SE 24 32 13 17 1019.8 1018.2 0.0
29/12:30am 16.4 12.1 9.3 63 3.7 SE 22 30 12 16 1019.7 1018.1 0.0
29/12:00am 16.3 12.4 8.8 61 3.9 S 19 26 10 14 1019.3 1017.7 0.0
 
Date/Time
WST
Temp
°C
App
Temp
°C
Dew
Point
°C
Rel
Hum
%
Delta-T
°C
Wind Press
QNH
hPa
Press
MSL
hPa
Rain since
9am
mm
Dir  Spd
km/h
Gust
km/h
Spd
kts
Gust
kts
28/11:30pm 16.3 13.1 8.5 60 4.0 S 15 19 8 10 1019.0 1017.4 0.0
28/11:00pm 16.1 14.0 8.3 60 4.0 S 9 13 5 7 1018.9 1017.3 0.0
28/10:30pm 17.6 14.9 9.0 57 4.5 S 13 17 7 9 1018.8 1017.2 0.0
28/10:00pm 18.1 15.0 8.7 54 4.9 S 15 19 8 10 1018.7 1017.1 0.0
28/09:30pm 19.2 15.1 8.8 51 5.5 S 20 24 11 13 1018.5 1016.9 0.0
28/09:00pm 19.8 14.6 8.8 49 5.9 S 26 32 14 17 1018.1 1016.4 0.0
28/08:30pm 20.2 15.7 6.2 40 7.1 S 19 22 10 12 1017.4 1015.8 0.0
28/08:00pm 20.8 16.5 5.2 36 7.8 S 17 20 9 11 1017.1 1015.5 0.0
28/07:30pm 21.7 17.0 5.2 34 8.3 SSW 19 24 10 13 1016.7 1015.1 0.0
28/07:00pm 22.8 17.7 4.3 30 9.2 SSW 20 24 11 13 1016.4 1014.8 0.0
28/06:30pm 23.5 18.4 0.6 22 10.7 SSW 17 20 9 11 1015.9 1014.3 0.0
28/06:00pm 24.9 19.3 1.1 21 11.4 SSW 20 26 11 14 1015.6 1013.9 0.0
28/05:30pm 26.3 20.6 -0.7 17 12.6 SW 19 24 10 13 1015.3 1013.6 0.0
28/05:00pm 27.4 20.9 -2.4 14 13.6 SW 22 32 12 17 1015.0 1013.3 0.0
28/04:30pm 28.1 21.8 -3.9 12 14.3 SW 20 33 11 18 1015.0 1013.3 0.0
28/04:00pm 28.5 22.6 -2.6 13 14.3 SW 19 28 10 15 1015.0 1013.3 0.0
28/03:30pm 28.8 22.9 -2.3 13 14.4 WSW 19 28 10 15 1014.9 1013.2 0.0
28/03:00pm 28.8 22.6 -3.4 12 14.6 WSW 20 32 11 17 1015.0 1013.3 0.0
28/02:30pm 28.2 22.9 -0.9 15 13.7 WSW 17 26 9 14 1015.2 1013.5 0.0
28/02:00pm 28.7 22.6 -2.4 13 14.3 WSW 20 28 11 15 1015.7 1014.1 0.0
28/01:30pm 28.5 23.3 -2.6 13 14.3 W 15 26 8 14 1015.9 1014.3 0.0
28/01:00pm 28.4 22.8 0.2 16 13.6 W 19 30 10 16 1016.3 1014.7 0.0
28/12:30pm 27.5 22.6 1.8 19 12.7 W 17 28 9 15 1016.7 1015.1 0.0
28/12:00pm 26.2 21.7 2.2 21 11.8 WSW 15 24 8 13 1017.2 1015.6 0.0
28/11:30am 25.6 21.2 2.9 23 11.3 WNW 15 22 8 12 1017.7 1016.0 0.0
28/11:00am 24.7 21.6 3.4 25 10.6 WNW 9 20 5 11 1017.8 1016.1 0.0
28/10:30am 23.0 20.0 4.0 29 9.4 WNW 9 17 5 9 1018.2 1016.6 0.0
28/10:00am 22.5 19.9 4.1 30 9.1 WNW 7 15 4 8 1018.6 1017.0 0.0
28/09:30am 20.3 17.8 3.5 33 8.1 W 6 9 3 5 1018.7 1017.1 0.0
28/09:00am 18.6 16.4 3.3 36 7.3 SW 4 7 2 4 1018.9 1017.3 0.0
28/08:30am 16.6 14.4 3.3 41 6.2 SSW 4 7 2 4 1018.7 1017.1 0.0
28/08:00am 14.2 11.6 3.1 47 5.1 SSW 6 9 3 5 1018.7 1017.1 0.0
28/07:30am 11.4 9.3 1.9 52 4.1 S 2 7 1 4 1018.5 1016.9 0.0
28/07:00am 9.4 7.6 1.3 57 3.4 CALM 0 2 0 1 1018.4 1016.8 0.0

Other Formats:

Comma delimited format used in spreadsheet applications
http://www.bom.gov.au/fwo/IDW60801/IDW60801.95634.axf

JavaScript Object Notation format (JSON) in row-major order
http://www.bom.gov.au/fwo/IDW60801/IDW60801.95634.json